createdAt,value
2023-03-29T00:25:41.608Z,-5.26
2023-03-29T00:55:45.003Z,-5.51
2023-03-29T01:25:48.267Z,-5.54
2023-03-29T01:55:51.870Z,-5.73
2023-03-29T02:25:55.748Z,-5.70
2023-03-29T02:55:59.151Z,-5.98
2023-03-29T03:26:02.711Z,-5.61
2023-03-29T03:56:06.307Z,-5.75
2023-03-29T04:26:09.395Z,-5.74
2023-03-29T04:56:12.885Z,-5.66
2023-03-29T05:26:16.027Z,-4.67
2023-03-29T05:56:19.454Z,-3.62
2023-03-29T06:26:22.622Z,-2.37
2023-03-29T06:56:25.976Z,-1.54
2023-03-29T07:26:30.185Z,-0.37
2023-03-29T07:56:33.919Z,1.17
2023-03-29T08:26:37.215Z,2.50
2023-03-29T08:56:40.580Z,4.04
2023-03-29T09:26:43.858Z,5.53
2023-03-29T09:56:46.768Z,6.01
2023-03-29T10:26:51.446Z,6.64
2023-03-29T10:56:54.324Z,7.05
2023-03-29T11:26:58.240Z,7.73
2023-03-29T11:57:01.172Z,8.27
2023-03-29T12:27:05.566Z,9.50
2023-03-29T12:57:08.512Z,8.91
2023-03-29T13:27:12.142Z,9.19
2023-03-29T13:57:32.987Z,9.91
2023-03-29T16:00:28.295Z,8.63
2023-03-29T17:01:38.587Z,7.40
2023-03-29T17:31:42.657Z,6.77
2023-03-29T18:01:45.947Z,6.43
2023-03-29T18:31:52.735Z,5.82
2023-03-29T20:03:33.245Z,5.69
2023-03-29T20:33:36.709Z,5.74
2023-03-29T21:03:39.850Z,5.40
2023-03-29T21:33:43.248Z,5.15
2023-03-29T22:03:46.344Z,4.90
2023-03-29T22:33:49.288Z,5.00
2023-03-29T23:03:56.289Z,5.01
2023-03-29T23:33:59.706Z,4.95
